Acomita, New Mexico
Current Conditions -  °F | °C
As of 3:15 PM on Thursday 18 Dec 2014 (Local Time) from KGNT Reporting Station
Overcast Overcast  
Wind Chill: 25°   Ceiling: 5500
Heat Index: 34°   Visibility: 7mi
Dew Point: 30°   Wind: 13mph
Humidity: 83%   Direction: 300°WNW
Pressure: 30.11"   Gusts: 20mph
Location:  35.0806°N, 107.597°W
Report Text: KGNT 182215Z AUTO 30011G17KT 7SM SCT038 SCT047 OVC055 01/M01 A3011 RMK AO2 T00131013
Loading
Personal Weather Stations






























Interactive Weather Map New forecast layout! Learn more

10-Day Weather Forecast

Advertisements
Track Severe Weather on mobile